ADDS METAR Data INFO
IDs: Format: Raw Decoded Include TAF

Data at: 0458 UTC 23 May 2017

KTOR 230453Z AUTO 30006KT 10SM FEW070 FEW090 06/03 A3020 RMK AO2 SLP217 T00560028
KTOR 230353Z AUTO 32008KT 10SM CLR 06/02 A3018 RMK AO2 SLP212 T00610022
KTOR 230253Z AUTO 33010KT 10SM CLR 08/02 A3016 RMK AO2 SLP204 60000 T00780022 51016
KTOR 230153Z AUTO 34011G19KT 10SM CLR 10/01 A3015 RMK AO2 PK WND 33027/0109 SLP200 T01000006
KTOR 230053Z AUTO 34010G25KT 10SM BKN075 OVC090 11/02 A3013 RMK AO2 PK WND 01037/0006 RAB09E19 SLP198 P0000 T01060022
KTOR 222353Z AUTO 33019G29KT 10SM FEW047 SCT055 BKN070 14/M01 A3011 RMK AO2 PK WND 32029/2339 SLP188 60000 T01391006 10139 20094 56006
KTOR 222253Z AUTO 33016G28KT 10SM FEW034 FEW045 11/02 A3012 RMK AO2 PK WND 34028/2249 SLP195 T01110022
KTOR 222153Z AUTO 31010KT 10SM FEW028 10/03 A3011 RMK AO2 PK WND 34032/2056 SLP196 T01000033
KTOR 222053Z AUTO 34020G29KT 10SM BKN036 BKN043 OVC090 10/03 A3013 RMK AO2 PK WND 33032/2016 SLP200 60000 T01000028 53013
KTOR 221953Z AUTO 30018G24KT 10SM OVC070 12/02 A3010 RMK AO2 PK WND 33029/1855 RAE12 SLP186 P0000 T01170022
KTOR 221853Z AUTO 33025G34KT 10SM -RA FEW049 OVC060 11/02 A3009 RMK AO2 PK WND 34034/1853 RAB45 SLP185 P0000 T01060022
KTOR 221753Z AUTO 34013G23KT 10SM OVC070 12/03 A3008 RMK AO2 SLP177 T01220033 10133 20039 57005
KTOR 221653Z AUTO 34017G26KT 10SM OVC080 13/03 A3008 RMK AO2 PK WND 34026/1648 SLP173 T01280028
KTOR 221553Z AUTO 34013KT 10SM SCT075 OVC095 12/03 A3010 RMK AO2 SLP179 T01220033
KTOR 221453Z AUTO 32011KT 10SM BKN095 OVC110 11/04 A3010 RMK AO2 SLP179 T01110044 53001
KTOR 221353Z AUTO 26005KT 10SM CLR 09/06 A3009 RMK AO2 SLP174 T00890056
KTOR 221253Z AUTO 25003KT 10SM CLR 06/04 A3010 RMK AO2 SLP179 T00560039
KTOR 221153Z AUTO 27005KT 10SM CLR 04/03 A3010 RMK AO2 SLP187 70004 T00390028 10078 20033 58015
KTOR 221053Z AUTO 31004KT 10SM CLR 04/03 A3011 RMK AO2 SLP185 T00390028
KTOR 220953Z AUTO 29003KT 10SM CLR 04/04 A3013 RMK AO2 SLP192 T00440039
KTOR 220853Z AUTO 29004KT 10SM CLR 04/03 A3014 RMK AO2 SLP201 T00390033 58012
KTOR 220753Z AUTO 28005KT 10SM CLR 04/04 A3016 RMK AO2 SLP209 T00440039
KTOR 220653Z AUTO 31004KT 10SM CLR 06/06 A3018 RMK AO2 SLP205 T00610056 401780017
KTOR 220553Z AUTO 29005KT 10SM CLR 07/06 A3019 RMK AO2 SLP207 60001 T00670061 10144 20067 50005
KTOR 220453Z AUTO 33004KT 10SM CLR 08/06 A3019 RMK AO2 SLP206 T00830061
KTOR 220353Z AUTO 27006KT 10SM FEW055 BKN075 OVC100 09/06 A3020 RMK AO2 RAE0259 SLP211 P0000 T00890061
KTOR 220253Z AUTO 30006KT 9SM -RA FEW060 BKN075 10/05 A3017 RMK AO2 RAB43 SLP203 P0001 60001 T01000050 53006
KTOR 220153Z AUTO 31006KT 10SM FEW040 BKN075 OVC095 12/03 A3016 RMK AO2 SLP202 T01170033
KTOR 220053Z AUTO 35006KT 10SM OVC110 14/05 A3015 RMK AO2 RAE2359 SLP199 P0000 T01440050
KTOR 212353Z AUTO 01016G22KT 10SM -RA BKN055 OVC080 11/07 A3015 RMK AO2 WSHFT 2317 RAB42 SLP208 P0000 60003 T01110072 10172 20106 53001
KTOR 212337Z AUTO 01017G24KT 10SM BKN055 BKN065 12/05 A3015 RMK AO2 WSHFT 2317 T01220050
KTOR 212253Z AUTO 27013KT 10SM FEW095 SCT120 16/05 A3013 RMK AO2 LTG DSNT N SLP195 T01610050
KTOR 212153Z AUTO 28009KT 10SM BKN100 15/06 A3013 RMK AO2 SLP197 T01500056
KTOR 212053Z AUTO 28009KT 10SM FEW070 SCT120 14/07 A3015 RMK AO2 WSHFT 2000 LTG DSNT SE RAE37 TSB1956E20 SLP201 P0002 60003 T01390072 55002
KTOR 212020Z AUTO 30013KT 10SM -RA BKN050 OVC065 11/08 A3016 RMK AO2 WSHFT 2000 TSB1956E20 P0001 T01060078
KTOR 212002Z AUTO 33015G21KT 10SM -TSRA OVC050 12/06 A3015 RMK AO2 TSB1956 P0001 T01220061
KTOR 211953Z AUTO 35008G15KT 9SM -RA OVC050 12/07 A3014 RMK AO2 RAB35 SLP204 P0001 T01220072
KTOR 211853Z AUTO 33006KT 10SM SCT090 BKN110 16/04 A3014 RMK AO2 WSHFT 1741 LTG DSNT W SLP193 T01560039
KTOR 211801Z AUTO 35009G18KT 10SM FEW049 FEW055 BKN090 15/04 A3015 RMK AO2 WSHFT 1741 LTG DSNT NE T01500039
KTOR 211753Z AUTO 34013G19KT 10SM SCT049 SCT060 16/04 A3015 RMK AO2 SLP197 T01560039 10178 20028 58003


Page loaded:  04:58 UTC  |   09:58 PM Pacific  |   10:58 PM Mountain  |   11:58 PM Central  |   12:58 AM Eastern

 

ADVISORIES

FORECASTS

FORECASTS

OBSERVATIONS

USER TOOLS

ABOUT US